Time;durP1;ratioP1;P1;durP2;ratioP2;P2;SDS_P1;SDS_P2;PMS_P1;PMS_P2;Temp;Humidity;BMP_temperature;BMP_pressure;BME280_temperature;BME280_humidity;BME280_pressure;Samples;Min_cycle;Max_cycle;Signal;HPM_P1;HPM_P2
2021/12/05 00:22:33;;;;;;;29.50;14.03;;;;;;;1.01;74.96;98942.16;1782064;79;21537;-73
2021/12/05 00:25:01;;;;;;;26.37;14.47;;;;;;;1.03;74.92;98944.27;1782098;80;20978;-74
2021/12/05 00:27:43;;;;;;;23.47;13.80;;;;;;;1.00;74.83;98939.14;1782480;80;21080;-74
2021/12/05 00:33:22;;;;;;;;;;;;;;;1.02;74.96;98945.12;1784991;80;21474;-74
2021/12/05 00:39:05;;;;;;;21.33;12.33;;;;;;;1.11;75.09;98938.50;1782267;80;21527;-74
2021/12/05 00:41:28;;;;;;;23.57;12.53;;;;;;;1.12;75.04;98941.47;1737612;81;21124;-74
2021/12/05 00:54:44;;;;;;;24.30;13.20;;;;;;;1.23;75.01;98952.85;1742947;82;21296;-74
2021/12/05 00:56:53;;;;;;;25.30;14.90;;;;;;;1.24;74.96;98952.80;1739452;82;21056;-74
2021/12/05 00:59:36;;;;;;;25.15;13.98;;;;;;;1.26;74.69;98942.45;1740154;82;21555;-75
2021/12/05 01:04:44;;;;;;;19.70;12.10;;;;;;;1.30;74.94;98944.07;1743097;82;21242;-74
2021/12/05 01:07:18;;;;;;;24.93;13.57;;;;;;;1.33;75.03;98948.74;1741276;82;21942;-74
2021/12/05 01:09:51;;;;;;;23.30;13.17;;;;;;;1.36;74.85;98961.15;1741502;82;21502;-74
2021/12/05 01:15:08;;;;;;;25.07;12.97;;;;;;;1.31;74.55;98963.86;1743098;82;21529;-74
2021/12/05 01:17:50;;;;;;;23.47;14.27;;;;;;;1.29;74.55;98960.45;1741530;82;21678;-74
2021/12/05 01:20:16;;;;;;;24.70;13.63;;;;;;;1.26;74.50;98968.27;1741616;82;21193;-74
2021/12/05 01:22:55;;;;;;;22.47;14.53;;;;;;;1.25;74.54;98973.88;1742761;82;21018;-74
2021/12/05 01:25:24;;;;;;;23.30;13.63;;;;;;;1.24;74.59;98972.61;1742123;82;21077;-75
2021/12/05 01:28:07;;;;;;;25.17;13.97;;;;;;;1.26;74.68;98969.56;1747466;80;21014;-74
2021/12/05 01:30:39;;;;;;;21.80;12.63;;;;;;;1.25;74.66;98968.72;1783920;78;21028;-74
2021/12/05 01:54:46;;;;;;;23.93;13.63;;;;;;;1.44;74.70;98956.66;1782367;80;21470;-75
2021/12/05 01:57:31;;;;;;;25.40;12.90;;;;;;;1.43;74.85;98959.69;1786565;78;20974;-74
2021/12/05 02:00:12;;;;;;;22.47;13.60;;;;;;;1.45;74.66;98963.55;1786755;78;21124;-75
2021/12/05 02:34:46;;;;;;;21.57;14.03;;;;;;;1.32;75.10;98978.45;1734485;82;21081;-75
2021/12/05 02:37:36;;;;;;;29.27;14.13;;;;;;;1.27;75.06;98986.73;1781385;80;21017;-76
2021/12/05 02:42:48;;;;;;;27.57;15.53;;;;;;;1.16;75.55;98986.12;1782253;80;21013;-75
2021/12/05 02:45:11;;;;;;;26.90;14.97;;;;;;;1.10;75.80;98984.07;1783737;78;21045;-74
2021/12/05 02:47:46;;;;;;;27.58;15.98;;;;;;;1.05;75.93;98994.08;1782442;80;21009;-75
2021/12/05 02:50:11;;;;;;;25.82;14.53;;;;;;;1.03;76.13;99001.03;1783366;78;21021;-74
2021/12/05 02:52:41;;;;;;;27.50;15.40;;;;;;;1.00;76.18;98998.48;1782895;80;21049;-74
2021/12/05 02:55:34;;;;;;;26.73;14.70;;;;;;;1.01;76.47;99004.91;1812604;78;21017;-74
2021/12/05 02:58:00;;;;;;;26.30;14.33;;;;;;;1.05;76.48;99010.86;1784214;78;20982;-75
2021/12/05 03:00:36;;;;;;;28.37;15.83;;;;;;;1.01;76.67;99004.91;1782990;78;21020;-75
2021/12/05 03:03:17;;;;;;;31.03;14.53;;;;;;;1.01;76.74;99004.91;1767333;78;20979;-74
2021/12/05 03:05:42;;;;;;;30.40;15.47;;;;;;;0.99;77.02;99003.25;1767710;79;21104;-75
2021/12/05 03:08:06;;;;;;;30.70;15.97;;;;;;;1.01;77.34;99006.66;1767366;79;21014;-75
2021/12/05 03:10:33;;;;;;;28.33;15.67;;;;;;;1.02;77.53;99010.92;1766336;80;21420;-74
2021/12/05 03:13:01;;;;;;;26.97;15.10;;;;;;;0.99;77.52;99004.53;1736918;81;21023;-75
2021/12/05 03:15:29;;;;;;;30.13;15.83;;;;;;;0.98;77.64;99005.43;1797767;79;21492;-75
2021/12/05 03:17:56;;;;;;;30.03;15.27;;;;;;;0.97;77.55;99007.16;1798074;79;21788;-75
2021/12/05 03:20:24;;;;;;;39.03;17.07;;;;;;;0.97;77.65;99007.58;1797503;79;21532;-75
2021/12/05 03:22:52;;;;;;;41.47;17.37;;;;;;;0.97;77.74;99009.75;1798065;79;20975;-75
2021/12/05 03:25:20;;;;;;;37.50;17.93;;;;;;;0.98;77.86;99009.30;1797681;79;21469;-75
2021/12/05 03:27:47;;;;;;;35.43;15.93;;;;;;;0.98;77.92;99015.30;1797992;79;21552;-75
2021/12/05 03:30:21;;;;;;;46.57;18.40;;;;;;;1.00;78.01;99020.41;1797566;79;21086;-75
2021/12/05 03:32:50;;;;;;;49.10;20.03;;;;;;;0.99;78.24;99019.57;1797811;79;20987;-75
2021/12/05 03:35:22;;;;;;;46.30;20.30;;;;;;;1.00;78.36;99014.84;1798034;79;21003;-76
2021/12/05 03:37:50;;;;;;;99.07;41.80;;;;;;;1.00;78.59;99018.71;1797649;79;20967;-75
2021/12/05 03:40:22;;;;;;;98.47;50.70;;;;;;;1.01;78.69;99020.40;1797946;79;21082;-75
2021/12/05 03:42:54;;;;;;;42.83;22.17;;;;;;;0.99;78.57;99023.44;1797612;79;21294;-76
2021/12/05 03:45:31;;;;;;;31.60;17.87;;;;;;;0.99;78.63;99022.15;1798045;79;20975;-76
2021/12/05 03:47:59;;;;;;;31.77;18.40;;;;;;;0.99;78.44;99027.76;1797735;79;20999;-75
2021/12/05 03:50:27;;;;;;;27.50;16.80;;;;;;;0.97;78.61;99019.19;1797930;79;20991;-76
2021/12/05 03:52:55;;;;;;;29.57;17.13;;;;;;;0.98;78.68;99021.75;1797627;79;21484;-75
2021/12/05 03:55:25;;;;;;;34.00;17.52;;;;;;;1.00;78.86;99021.30;1798146;79;21927;-75
2021/12/05 03:57:53;;;;;;;30.67;18.97;;;;;;;1.05;78.96;99027.21;1797829;79;21540;-77
2021/12/05 04:00:25;;;;;;;28.47;15.83;;;;;;;1.08;79.05;99028.85;1797572;79;21057;-76
2021/12/05 04:02:56;;;;;;;29.47;16.30;;;;;;;1.11;79.18;99033.98;1797589;78;20979;-75
2021/12/05 04:05:26;;;;;;;26.90;16.23;;;;;;;1.10;79.18;99032.26;1797654;79;22264;-76
2021/12/05 04:07:54;;;;;;;29.30;16.63;;;;;;;1.08;79.26;99027.14;1797623;79;21093;-76
2021/12/05 04:10:25;;;;;;;41.53;20.67;;;;;;;1.07;79.27;99028.45;1797622;79;21002;-76
2021/12/05 04:12:52;;;;;;;37.85;18.55;;;;;;;1.05;79.16;99028.50;1797744;79;20990;-76
2021/12/05 04:15:21;;;;;;;30.77;18.57;;;;;;;1.03;79.47;99030.25;1797647;79;20991;-76
2021/12/05 04:17:50;;;;;;;26.07;15.63;;;;;;;1.08;79.47;99027.14;1797664;79;20991;-77
2021/12/05 04:20:19;;;;;;;26.47;15.53;;;;;;;1.06;79.10;99024.19;1797481;79;21151;-76
2021/12/05 04:22:48;;;;;;;25.43;15.72;;;;;;;1.04;79.40;99025.49;1797690;79;20987;-76
2021/12/05 04:25:18;;;;;;;26.10;14.80;;;;;;;1.08;79.60;99027.14;1797566;79;20999;-76
2021/12/05 04:27:49;;;;;;;30.10;17.40;;;;;;;1.14;79.65;99036.91;1797868;79;20911;-76
2021/12/05 04:30:20;;;;;;;29.70;18.47;;;;;;;1.17;79.60;99042.03;1797883;79;21014;-76
2021/12/05 04:32:51;;;;;;;28.77;17.23;;;;;;;1.17;79.70;99042.88;1775241;79;21785;-76
2021/12/05 04:35:18;;;;;;;31.15;17.42;;;;;;;1.15;79.73;99038.18;1797614;79;21006;-76
2021/12/05 04:37:47;;;;;;;29.47;17.40;;;;;;;1.13;79.90;99035.22;1798071;79;21060;-76
2021/12/05 04:40:17;;;;;;;33.10;18.53;;;;;;;1.16;80.05;99036.00;1797641;79;20983;-76
2021/12/05 04:42:45;;;;;;;33.65;19.10;;;;;;;1.19;80.05;99050.16;1797864;79;21002;-76
2021/12/05 04:45:23;;;;;;;27.13;16.10;;;;;;;1.15;79.91;99049.79;1797585;79;21106;-77
2021/12/05 04:47:52;;;;;;;23.43;15.67;;;;;;;1.18;80.01;99052.30;1797952;79;20997;-77
2021/12/05 04:50:20;;;;;;;29.10;17.00;;;;;;;1.20;79.94;99052.29;1797540;79;21523;-77
2021/12/05 04:52:50;;;;;;;24.27;14.80;;;;;;;1.21;79.92;99052.23;1797980;79;21026;-77
2021/12/05 04:55:18;;;;;;;27.37;15.83;;;;;;;1.20;79.85;99057.45;1797562;79;20983;-76
2021/12/05 04:57:48;;;;;;;23.40;14.73;;;;;;;1.23;80.12;99056.94;1797867;79;21785;-77
2021/12/05 05:00:26;;;;;;;23.67;14.33;;;;;;;1.29;80.22;99057.25;1775133;79;20987;-76
2021/12/05 05:02:55;;;;;;;23.17;14.73;;;;;;;1.31;80.06;99067.11;1796751;78;21575;-76
2021/12/05 05:05:27;;;;;;;24.37;15.40;;;;;;;1.26;80.00;99063.77;1708410;82;21047;-77
2021/12/05 05:07:54;;;;;;;27.23;15.40;;;;;;;1.20;80.05;99066.04;1783294;80;20987;-77
2021/12/05 05:10:26;;;;;;;26.70;16.40;;;;;;;1.19;80.20;99073.38;1786504;79;21489;-77
2021/12/05 05:12:54;;;;;;;32.47;17.00;;;;;;;1.17;80.39;99071.27;1786047;80;21432;-77
2021/12/05 05:15:26;;;;;;;28.87;16.43;;;;;;;1.19;80.55;99069.52;1786337;79;21003;-77
2021/12/05 05:17:55;;;;;;;27.33;16.13;;;;;;;1.19;80.32;99073.38;1786141;80;20962;-82
2021/12/05 05:20:53;;;;;;;29.47;17.27;;;;;;;1.15;80.34;99066.56;1786574;79;21139;-77
2021/12/05 05:26:19;;;;;;;28.93;18.13;;;;;;;1.18;80.41;99074.24;1786333;79;21008;-77
2021/12/05 05:28:42;;;;;;;40.47;20.70;;;;;;;1.19;80.46;99082.83;1783092;80;21022;-77
2021/12/05 05:39:30;;;;;;;107.33;45.27;;;;;;;1.14;80.62;99080.36;1786157;79;20968;-77
2021/12/05 05:42:10;;;;;;;78.97;32.57;;;;;;;1.15;80.92;99081.20;1775286;80;21284;-76
2021/12/05 05:52:10;;;;;;;34.93;17.97;;;;;;;1.22;80.97;99094.37;1686684;82;21458;-77
2021/12/05 05:54:37;;;;;;;32.70;17.10;;;;;;;1.18;80.60;99101.34;1755511;79;20975;-77
2021/12/05 05:57:23;;;;;;;34.73;16.87;;;;;;;1.15;80.67;99103.98;1759600;80;21026;-77
2021/12/05 06:00:04;;;;;;;34.80;15.87;;;;;;;1.16;80.85;99101.80;1699347;83;21001;-77
2021/12/05 06:05:15;;;;;;;41.60;19.20;;;;;;;1.20;81.05;99105.20;1737822;81;21046;-78
2021/12/05 06:07:44;;;;;;;30.43;17.27;;;;;;;1.22;81.08;99100.83;1786964;78;21021;-79
2021/12/05 06:10:16;;;;;;;114.83;46.97;;;;;;;1.23;81.22;99105.98;1784372;79;20995;-78
2021/12/05 06:12:43;;;;;;;45.67;21.23;;;;;;;1.23;81.12;99114.17;1776976;79;21002;-78
2021/12/05 06:15:14;;;;;;;49.73;22.03;;;;;;;1.14;80.98;99114.33;1773389;80;21124;-78
2021/12/05 06:17:42;;;;;;;;;;;;;;;1.09;81.03;99117.02;1776237;80;20974;-78
2021/12/05 06:20:15;;;;;;;38.13;17.37;;;;;;;1.06;81.26;99113.20;1773551;81;20168;-78
2021/12/05 06:22:44;;;;;;;28.23;15.87;;;;;;;1.08;81.61;99121.33;1773772;80;21482;-78
2021/12/05 06:25:15;;;;;;;36.07;17.90;;;;;;;1.13;81.52;99119.09;1773356;81;21275;-78
2021/12/05 06:27:43;;;;;;;34.17;17.27;;;;;;;1.13;81.25;99118.64;1773564;80;21865;-77
2021/12/05 06:30:17;;;;;;;27.93;14.80;;;;;;;1.14;81.26;99124.65;1773345;81;21513;-78
2021/12/05 06:48:42;;;;;;;111.60;49.80;;;;;;;1.20;81.79;99142.63;1765528;81;21029;-77
2021/12/05 06:51:11;;;;;;;61.47;28.33;;;;;;;1.19;81.77;99149.52;1765268;81;20990;-80
2021/12/05 06:53:39;;;;;;;37.07;17.73;;;;;;;1.16;81.75;99152.12;1765557;81;21116;-77
2021/12/05 06:56:07;;;;;;;21.53;12.50;;;;;;;1.15;81.67;99158.19;1765295;81;20990;-77
2021/12/05 06:58:36;;;;;;;17.33;10.37;;;;;;;1.19;81.78;99166.30;1765586;81;21041;-77
2021/12/05 07:01:07;;;;;;;14.67;9.17;;;;;;;1.23;81.86;99167.08;1765214;81;21543;-77
2021/12/05 07:03:37;;;;;;;12.63;8.47;;;;;;;1.26;81.97;99168.31;1765301;81;21080;-77
2021/12/05 07:06:13;;;;;;;43.83;18.80;;;;;;;1.26;81.73;99169.60;1765112;80;28474;-78
2021/12/05 07:08:42;;;;;;;24.53;12.60;;;;;;;1.25;81.74;99169.20;1765284;81;21033;-78
2021/12/05 07:16:42;;;;;;;12.57;8.33;;;;;;;1.27;82.01;99176.45;1765097;81;21542;-79
2021/12/05 07:21:48;;;;;;;24.17;12.50;;;;;;;1.22;81.99;99177.85;1754313;81;21076;-79
2021/12/05 07:40:29;;;;;;;17.93;11.27;;;;;;;1.44;82.07;99189.91;1775798;80;21014;-77
2021/12/05 07:43:03;;;;;;;19.63;13.10;;;;;;;1.47;82.27;99193.72;1775428;80;21000;-77
2021/12/05 07:45:41;;;;;;;23.30;15.73;;;;;;;1.46;82.31;99192.45;1775676;80;21062;-76
2021/12/05 07:48:11;;;;;;;17.50;12.27;;;;;;;1.48;82.38;99195.86;1774409;80;21029;-77
2021/12/05 07:50:48;;;;;;;20.77;13.13;;;;;;;1.46;82.14;99197.16;1775283;80;21000;-76
2021/12/05 07:53:15;;;;;;;20.57;13.83;;;;;;;1.43;82.00;99201.10;1773381;80;21005;-77
2021/12/05 07:55:41;;;;;;;22.00;14.37;;;;;;;1.36;81.57;99203.82;1772436;80;21232;-76
2021/12/05 08:16:56;;;;;;;25.83;16.40;;;;;;;1.08;82.16;99218.52;1797931;79;20999;-76
2021/12/05 08:19:23;;;;;;;27.97;18.10;;;;;;;1.06;82.26;99222.87;1797628;79;21509;-76
2021/12/05 08:21:55;;;;;;;29.33;19.50;;;;;;;1.02;82.30;99224.63;1797925;79;21206;-75
2021/12/05 08:24:18;;;;;;;27.77;17.40;;;;;;;1.00;82.38;99233.28;1797015;79;21088;-76
2021/12/05 08:26:48;;;;;;;24.13;16.07;;;;;;;1.01;82.50;99229.84;1797874;79;21233;-80
2021/12/05 08:29:19;;;;;;;22.93;15.67;;;;;;;1.05;82.65;99243.09;1797690;79;20918;-75
2021/12/05 08:34:44;;;;;;;22.27;14.53;;;;;;;1.10;82.69;99241.28;1797654;79;21423;-77
2021/12/05 10:15:01;;;;;;;33.80;17.63;;;;;;;2.54;83.51;99275.90;1746330;82;20968;-78
2021/12/05 10:20:17;;;;;;;41.37;20.23;;;;;;;2.64;83.32;99284.32;1746414;82;21075;-81
2021/12/05 10:34:52;;;;;;;30.60;17.50;;;;;;;2.81;83.22;99286.52;1746308;82;21414;-77
2021/12/05 10:37:48;;;;;;;;;;;;;;;;;;;;;
2021/12/05 10:40:08;;;;;;;25.60;15.33;;;;;;;2.81;82.80;99283.48;1644685;84;21020;-76
2021/12/05 10:42:44;;;;;;;26.47;15.73;;;;;;;2.77;82.70;99281.86;1746674;81;21063;-76
2021/12/05 10:45:28;;;;;;;33.13;17.70;;;;;;;2.78;82.76;99291.32;1745430;82;21107;-79
2021/12/05 10:47:59;;;;;;;28.33;17.40;;;;;;;2.74;82.62;99292.26;1746562;82;20977;-78
2021/12/05 10:50:43;;;;;;;32.47;17.83;;;;;;;2.74;82.79;99306.48;1746145;82;21024;-78
2021/12/05 10:53:37;;;;;;;36.40;20.80;;;;;;;2.70;82.83;99298.41;1746280;81;21039;-79
2021/12/05 10:56:33;;;;;;;29.80;18.43;;;;;;;2.68;82.79;99301.02;1745962;80;21012;-77
2021/12/05 10:59:25;;;;;;;32.67;17.83;;;;;;;2.65;82.60;99300.23;1744063;80;20992;-78
2021/12/05 11:01:59;;;;;;;28.30;15.83;;;;;;;2.62;82.54;99301.60;1748105;80;21067;-77
2021/12/05 11:04:42;;;;;;;41.87;21.53;;;;;;;2.61;82.67;99305.09;1691395;82;21104;-77
2021/12/05 11:07:17;;;;;;;46.07;23.13;;;;;;;2.67;82.90;99310.12;1756721;79;21083;-78
2021/12/05 11:09:57;;;;;;;42.50;22.63;;;;;;;2.68;82.65;99311.81;1707448;82;20975;-76
2021/12/05 11:12:28;;;;;;;38.67;21.70;;;;;;;2.70;82.53;99313.92;1756690;80;20991;-79
2021/12/05 11:15:01;;;;;;;38.97;21.90;;;;;;;2.72;82.82;99310.02;1698302;83;21122;-78
2021/12/05 11:17:37;;;;;;;45.13;24.30;;;;;;;2.79;82.71;99320.63;1754952;80;21077;-77
2021/12/05 11:20:17;;;;;;;34.67;20.43;;;;;;;2.76;82.68;99318.11;1698548;83;21080;-77
2021/12/05 11:22:46;;;;;;;46.60;24.53;;;;;;;2.76;82.59;99326.72;1755229;80;20994;-77
2021/12/05 11:25:20;;;;;;;48.73;23.47;;;;;;;2.76;82.74;99324.58;1760251;78;20983;-77
2021/12/05 11:27:53;;;;;;;52.33;24.63;;;;;;;2.77;82.66;99332.33;1765533;79;21010;-78
2021/12/05 11:30:33;;;;;;;50.47;23.17;;;;;;;2.74;82.64;99330.22;1766284;79;22327;-77
2021/12/05 11:33:23;;;;;;;63.80;28.87;;;;;;;2.74;82.53;99332.81;1763949;79;21134;-77
2021/12/05 11:35:56;;;;;;;41.37;20.68;;;;;;;2.77;82.56;99337.91;1707258;83;21418;-76
2021/12/05 11:38:28;;;;;;;46.53;22.20;;;;;;;2.80;82.70;99332.67;1754855;80;21022;-77
2021/12/05 11:41:10;;;;;;;27.30;16.73;;;;;;;2.81;82.54;99333.94;1758665;78;21488;-76
2021/12/05 11:43:45;;;;;;;28.73;17.10;;;;;;;2.84;82.85;99331.28;1763744;80;20998;-82
2021/12/05 11:46:20;;;;;;;25.10;16.27;;;;;;;2.90;82.82;99335.02;1706856;83;21517;-79
2021/12/05 11:48:58;;;;;;;29.63;18.10;;;;;;;2.94;82.96;99332.36;1675241;85;21505;-78
2021/12/05 11:51:33;;;;;;;30.80;18.63;;;;;;;2.95;82.78;99332.78;1752868;79;21515;-77
2021/12/05 11:54:20;;;;;;;35.10;20.47;;;;;;;2.91;82.67;99330.72;1700521;82;21020;-75
2021/12/05 11:57:00;;;;;;;27.70;17.13;;;;;;;2.89;82.77;99328.16;1755166;81;21480;-75
2021/12/05 11:59:42;;;;;;;27.87;17.37;;;;;;;2.86;82.50;99329.52;1754908;81;21127;-79
2021/12/05 12:02:30;;;;;;;23.87;14.87;;;;;;;2.82;82.55;99333.05;1755141;80;21637;-78
2021/12/05 12:05:14;;;;;;;24.67;15.77;;;;;;;2.81;82.49;99332.65;1704423;81;21479;-79
2021/12/05 12:08:05;;;;;;;24.77;14.93;;;;;;;2.79;82.22;99333.56;1755831;81;20990;-79
2021/12/05 12:10:49;;;;;;;25.03;16.50;;;;;;;2.76;82.33;99331.89;1756861;81;21015;-78
2021/12/05 12:13:22;;;;;;;22.53;14.07;;;;;;;2.71;82.04;99337.61;1757528;81;21783;-79
2021/12/05 12:15:59;;;;;;;24.27;14.43;;;;;;;2.71;82.38;99345.82;1739680;81;21070;-79
2021/12/05 12:18:28;;;;;;;31.80;16.90;;;;;;;2.71;82.27;99349.70;1727536;81;21054;-77
2021/12/05 12:20:56;;;;;;;44.30;21.37;;;;;;;2.71;82.64;99357.02;1717302;82;21561;-79
2021/12/05 12:23:27;;;;;;;40.80;19.27;;;;;;;2.71;82.54;99363.48;1717245;82;21028;-78
2021/12/05 12:25:59;;;;;;;49.63;22.97;;;;;;;2.67;82.49;99367.03;1743587;82;21134;-78
2021/12/05 12:28:28;;;;;;;32.60;18.20;;;;;;;2.65;82.51;99373.52;1746601;82;21054;-79
2021/12/05 12:31:09;;;;;;;28.23;16.00;;;;;;;2.63;82.60;99375.73;1724669;82;21097;-77
2021/12/05 12:33:50;;;;;;;34.43;20.10;;;;;;;2.65;82.66;99376.56;1716927;83;21475;-73
2021/12/05 12:36:40;;;;;;;37.93;22.13;;;;;;;2.71;82.74;99376.87;1717321;83;21037;-78
2021/12/05 12:39:22;;;;;;;32.63;18.97;;;;;;;2.77;82.88;99376.31;1717781;82;21098;-75
2021/12/05 12:42:16;;;;;;;25.80;16.03;;;;;;;2.82;82.81;99373.61;1746806;82;21031;-78
2021/12/05 12:45:11;;;;;;;27.17;17.87;;;;;;;2.76;82.17;99372.00;1737275;81;21492;-79
2021/12/05 12:47:46;;;;;;;24.13;15.97;;;;;;;2.74;82.32;99378.94;1766840;81;21011;-77
2021/12/05 12:50:29;;;;;;;31.63;18.73;;;;;;;2.74;82.57;99380.69;1756566;81;20984;-76
2021/12/05 12:53:10;;;;;;;35.67;21.93;;;;;;;2.73;82.74;99384.16;1781422;79;21136;-74
2021/12/05 12:55:42;;;;;;;36.27;22.30;;;;;;;2.76;82.89;99390.56;1737431;79;21007;-80
2021/12/05 12:58:11;;;;;;;38.70;22.90;;;;;;;2.78;82.83;99396.12;1735659;81;21050;-76
2021/12/05 13:00:45;;;;;;;28.10;18.60;;;;;;;2.81;82.85;99395.20;1790375;79;21029;-80
2021/12/05 13:03:26;;;;;;;28.57;17.40;;;;;;;2.83;82.44;99406.38;1814180;79;21438;-73
2021/12/05 13:11:24;;;;;;;28.63;17.73;;;;;;;2.72;81.93;99414.81;1787863;78;20997;-76
2021/12/05 13:14:05;;;;;;;38.28;22.40;;;;;;;2.69;82.21;99407.97;1734648;82;21558;-76
2021/12/05 13:16:39;;;;;;;36.03;22.87;;;;;;;2.70;82.54;99403.19;1792568;79;21001;-73
2021/12/05 13:19:11;;;;;;;43.47;27.73;;;;;;;2.68;82.22;99401.92;1782117;79;21947;-72
2021/12/05 13:21:43;;;;;;;47.30;33.40;;;;;;;2.60;82.29;99410.72;1727623;81;21072;-75
2021/12/05 13:24:37;;;;;;;35.23;22.73;;;;;;;2.58;82.55;99416.39;1711542;83;20933;-73
2021/12/05 13:27:06;;;;;;;32.20;19.60;;;;;;;2.56;82.42;99427.20;1765307;80;21045;-72
2021/12/05 13:29:51;;;;;;;35.83;20.27;;;;;;;2.49;82.33;99424.31;1776246;79;21006;-81
2021/12/05 13:32:25;;;;;;;38.93;20.07;;;;;;;2.48;82.46;99421.33;1782181;79;22180;-72
2021/12/05 13:35:00;;;;;;;40.33;21.80;;;;;;;2.48;82.35;99415.70;1782483;79;21013;-72
2021/12/05 13:37:35;;;;;;;32.20;19.23;;;;;;;2.43;82.12;99409.33;1787355;79;21457;-75
2021/12/05 13:40:26;;;;;;;30.57;18.10;;;;;;;2.44;82.11;99408.91;1814371;78;20994;-80
2021/12/05 13:43:05;;;;;;;34.40;17.73;;;;;;;2.42;82.14;99419.72;1809018;77;21164;-79
2021/12/05 13:45:41;;;;;;;32.80;19.47;;;;;;;2.41;82.19;99424.05;1810126;79;21080;-77
2021/12/05 13:48:15;;;;;;;35.57;19.33;;;;;;;2.39;82.04;99434.00;1797616;78;21380;-74
2021/12/05 13:50:47;;;;;;;36.20;20.17;;;;;;;2.32;81.81;99426.78;1794976;79;21070;-75
2021/12/05 13:53:19;;;;;;;41.70;21.23;;;;;;;2.20;82.01;99435.63;1795945;79;20970;-77
2021/12/05 13:55:53;;;;;;;42.23;23.20;;;;;;;2.14;81.93;99431.88;1794429;79;21270;-75
2021/12/05 13:58:29;;;;;;;52.13;25.13;;;;;;;2.06;81.88;99432.45;1795991;79;21089;-75
2021/12/05 14:01:16;;;;;;;41.10;21.50;;;;;;;1.95;81.88;99441.68;1784212;79;21108;-74
2021/12/05 14:03:58;;;;;;;42.27;21.63;;;;;;;1.92;82.02;99453.37;1784657;79;20990;-76
2021/12/05 14:07:01;;;;;;;43.77;23.23;;;;;;;1.84;81.87;99454.38;1804847;79;20998;-73
2021/12/05 14:09:47;;;;;;;41.27;21.87;;;;;;;1.79;81.93;99464.33;1794619;78;21657;-76
2021/12/05 14:12:37;;;;;;;47.73;22.77;;;;;;;1.76;82.27;99463.54;1782102;80;21818;-74
2021/12/05 14:15:06;;;;;;;45.73;24.23;;;;;;;1.74;82.36;99466.58;1783497;78;21013;-73
2021/12/05 14:17:39;;;;;;;46.37;23.07;;;;;;;1.75;82.41;99463.14;1734296;82;21465;-73
2021/12/05 14:20:15;;;;;;;62.10;32.10;;;;;;;1.73;82.38;99463.59;1794688;79;20998;-76
2021/12/05 14:22:46;;;;;;;50.63;25.83;;;;;;;1.69;82.51;99466.67;1814585;78;21006;-74
2021/12/05 14:25:21;;;;;;;;;;;;;;;1.62;82.55;99468.08;1816966;78;21935;-74
2021/12/05 14:28:03;;;;;;;62.50;28.77;;;;;;;1.60;82.65;99476.28;1814362;79;20193;-73
2021/12/05 14:30:34;;;;;;;94.63;43.53;;;;;;;1.54;82.91;99476.78;1814053;78;20998;-74
2021/12/05 14:33:02;;;;;;;56.10;26.30;;;;;;;1.51;82.98;99471.67;1814302;78;21041;-74
2021/12/05 14:35:37;;;;;;;61.33;28.13;;;;;;;1.51;82.94;99474.70;1813935;78;21478;-74
2021/12/05 14:38:06;;;;;;;55.27;26.00;;;;;;;1.48;82.76;99480.76;1813311;78;21107;-74
2021/12/05 14:40:36;;;;;;;52.43;25.77;;;;;;;1.44;82.75;99478.23;1813865;78;21243;-74
2021/12/05 14:43:08;;;;;;;57.70;26.97;;;;;;;1.43;82.89;99484.28;1814443;78;20982;-73
2021/12/05 14:45:40;;;;;;;56.93;27.70;;;;;;;1.43;83.02;99486.42;1814145;79;21010;-73
2021/12/05 14:48:11;;;;;;;58.30;26.27;;;;;;;1.44;82.96;99487.27;1814556;78;20970;-73
2021/12/05 14:50:40;;;;;;;55.30;26.80;;;;;;;1.46;83.16;99494.56;1814098;78;21145;-74
2021/12/05 14:53:12;;;;;;;51.20;26.10;;;;;;;1.48;82.99;99496.70;1814562;78;20983;-74
2021/12/05 14:55:39;;;;;;;53.03;25.73;;;;;;;1.46;83.12;99497.15;1814245;79;21456;-74
2021/12/05 14:58:14;;;;;;;50.23;24.97;;;;;;;1.43;83.22;99504.50;1814674;78;21559;-74
2021/12/05 15:00:51;;;;;;;49.70;26.67;;;;;;;1.42;83.27;99512.28;1814495;78;21141;-74
2021/12/05 15:03:23;;;;;;;62.47;30.33;;;;;;;1.39;83.01;99520.08;1814779;79;21088;-74
2021/12/05 15:06:01;;;;;;;72.03;34.40;;;;;;;1.35;83.30;99524.41;1814270;78;21013;-73
2021/12/05 15:08:29;;;;;;;59.67;28.50;;;;;;;1.38;83.28;99528.23;1814530;78;20994;-74
2021/12/05 15:11:04;;;;;;;63.43;30.30;;;;;;;1.38;83.02;99531.26;1814362;78;21065;-73
2021/12/05 15:13:32;;;;;;;52.20;26.20;;;;;;;1.34;82.99;99531.75;1814239;78;21522;-73
2021/12/05 15:15:59;;;;;;;45.93;22.60;;;;;;;1.37;83.26;99538.16;1814652;78;21084;-74
2021/12/05 15:18:29;;;;;;;48.37;23.33;;;;;;;1.41;83.26;99538.95;1814403;78;21492;-73
2021/12/05 15:20:57;;;;;;;44.43;22.97;;;;;;;1.38;83.02;99543.72;1814620;78;21048;-74
2021/12/05 15:23:29;;;;;;;50.13;25.20;;;;;;;1.34;83.00;99529.16;1814350;79;21009;-74
2021/12/05 15:26:02;;;;;;;54.37;25.70;;;;;;;1.30;83.10;99527.48;1814848;78;21002;-74
2021/12/05 15:28:29;;;;;;;63.77;33.33;;;;;;;1.25;83.08;99535.30;1814486;78;21120;-74
2021/12/05 15:30:56;;;;;;;62.03;33.30;;;;;;;1.22;83.26;99539.22;1814560;78;21497;-73
2021/12/05 15:33:26;;;;;;;52.20;24.97;;;;;;;1.22;83.46;99545.67;1814336;78;20989;-74
2021/12/05 15:35:56;;;;;;;50.78;26.07;;;;;;;1.23;83.42;99547.81;1814823;78;20994;-73
2021/12/05 15:38:27;;;;;;;53.70;26.03;;;;;;;1.22;83.15;99544.80;1814529;78;21001;-73
2021/12/05 15:41:05;;;;;;;50.67;26.30;;;;;;;1.20;83.28;99548.70;1814599;79;21480;-74
2021/12/05 15:43:36;;;;;;;56.57;28.13;;;;;;;1.23;83.26;99543.50;1814287;78;21009;-74
2021/12/05 15:46:11;;;;;;;51.10;24.82;;;;;;;1.21;83.18;99547.82;1814778;78;20966;-73
2021/12/05 15:48:37;;;;;;;49.77;25.97;;;;;;;1.20;83.15;99549.14;1814071;78;21999;-74
2021/12/05 15:51:13;;;;;;;57.97;29.20;;;;;;;1.23;83.66;99544.79;1814442;78;21013;-73
2021/12/05 15:53:40;;;;;;;56.90;26.83;;;;;;;1.26;83.54;99539.58;1814137;79;21098;-74
2021/12/05 15:56:13;;;;;;;61.28;28.57;;;;;;;1.24;83.55;99541.77;1814271;78;20930;-73
2021/12/05 15:58:51;;;;;;;94.03;40.00;;;;;;;1.24;83.80;99537.89;1814749;78;21013;-74
2021/12/05 16:01:22;;;;;;;83.50;37.60;;;;;;;1.26;83.80;99539.58;1814199;78;22864;-74
2021/12/05 16:03:56;;;;;;;62.27;30.37;;;;;;;1.27;83.69;99550.76;1814731;78;21261;-74
2021/12/05 16:06:37;;;;;;;67.87;31.03;;;;;;;1.22;83.45;99545.67;1814336;78;22113;-74
2021/12/05 16:09:17;;;;;;;67.13;30.10;;;;;;;1.14;83.26;99551.78;1814017;78;20989;-73
2021/12/05 16:11:47;;;;;;;65.35;29.00;;;;;;;1.10;83.52;99553.55;1814658;78;21017;-73
2021/12/05 16:14:32;;;;;;;90.80;37.40;;;;;;;1.09;83.34;99554.44;1814958;79;21467;-73
2021/12/05 16:16:59;;;;;;;77.73;33.73;;;;;;;1.13;83.82;99563.84;1814432;78;21017;-74
2021/12/05 16:19:26;;;;;;;74.13;33.00;;;;;;;1.14;83.61;99563.39;1814581;78;21861;-73
2021/12/05 16:21:53;;;;;;;85.43;35.23;;;;;;;1.10;83.33;99574.20;1814218;79;21452;-74
2021/12/05 16:24:22;;;;;;;74.57;32.90;;;;;;;1.04;83.49;99573.84;1814658;78;21455;-73
2021/12/05 16:26:50;;;;;;;66.23;32.63;;;;;;;1.06;83.62;99577.70;1814187;78;21589;-74
2021/12/05 16:29:24;;;;;;;80.37;34.90;;;;;;;1.08;83.72;99572.95;1814605;78;21186;-74
2021/12/05 16:31:57;;;;;;;82.80;37.10;;;;;;;1.07;83.70;99584.56;1814300;78;21964;-73
2021/12/05 16:34:31;;;;;;;76.53;36.13;;;;;;;1.03;83.66;99586.77;1814534;78;20986;-73
2021/12/05 16:37:06;;;;;;;79.50;35.70;;;;;;;1.02;84.01;99590.20;1814388;78;21482;-73
2021/12/05 16:39:40;;;;;;;80.13;37.00;;;;;;;1.02;84.16;99592.79;1814544;79;20993;-73
2021/12/05 16:42:17;;;;;;;74.57;33.30;;;;;;;1.09;84.20;99593.15;1814397;78;22056;-73
2021/12/05 16:44:56;;;;;;;80.60;34.77;;;;;;;1.14;84.36;99600.41;1814751;78;21113;-73
2021/12/05 16:47:28;;;;;;;76.60;35.67;;;;;;;1.20;84.40;99602.06;1814198;78;20974;-74
2021/12/05 16:49:58;;;;;;;78.13;35.97;;;;;;;1.27;84.40;99612.72;1813514;78;21021;-73
2021/12/05 16:52:35;;;;;;;73.28;34.60;;;;;;;1.25;83.96;99613.20;1814868;79;28399;-73
2021/12/05 16:55:20;;;;;;;80.63;34.87;;;;;;;1.23;83.79;99613.64;1814397;79;21145;-73
2021/12/05 16:57:52;;;;;;;78.43;35.30;;;;;;;1.24;84.22;99610.17;1812292;78;21120;-75